Time;durP1;ratioP1;P1;durP2;ratioP2;P2;SDS_P1;SDS_P2;PMS_P1;PMS_P2;Temp;Humidity;BMP_temperature;BMP_pressure;BME280_temperature;BME280_humidity;BME280_pressure;Samples;Min_cycle;Max_cycle;Signal;HPM_P1;HPM_P2
2023/01/12 00:01:39;;;;;;;10.70;4.20;;;3.20;99.90;;;;;;5089987;28;20629;-63
2023/01/12 00:04:05;;;;;;;9.00;5.00;;;3.20;99.90;;;;;;5072627;28;20463;-63
2023/01/12 00:06:31;;;;;;;7.60;4.80;;;3.20;99.90;;;;;;5073811;28;20798;-64
2023/01/12 00:08:57;;;;;;;10.97;5.93;;;3.10;99.90;;;;;;5085637;28;20443;-64
2023/01/12 00:11:23;;;;;;;8.63;5.63;;;3.10;99.90;;;;;;5086108;28;20707;-63
2023/01/12 00:13:49;;;;;;;9.50;5.30;;;3.10;99.90;;;;;;5078134;28;20452;-64
2023/01/12 00:19:11;;;;;;;9.90;4.53;;;3.00;99.90;;;;;;5075814;28;20224;-63
2023/01/12 00:24:29;;;;;;;6.00;2.97;;;2.90;99.90;;;;;;5080388;28;20443;-63
2023/01/12 00:26:56;;;;;;;8.00;2.37;;;2.90;99.90;;;;;;5070422;28;20416;-63
2023/01/12 00:29:23;;;;;;;4.27;2.00;;;2.90;99.90;;;;;;5083827;28;20446;-63
2023/01/12 00:31:48;;;;;;;10.60;2.73;;;2.90;99.90;;;;;;5069394;28;21282;-63
2023/01/12 00:34:15;;;;;;;4.43;2.80;;;2.80;99.90;;;;;;5087890;28;20514;-62
2023/01/12 00:36:41;;;;;;;8.50;3.10;;;2.80;99.90;;;;;;5077093;28;20557;-63
2023/01/12 00:39:07;;;;;;;4.10;2.67;;;2.80;99.90;;;;;;5070432;28;20472;-63
2023/01/12 00:47:01;;;;;;;9.13;3.80;;;2.80;99.90;;;;;;5070581;28;20431;-63
2023/01/12 00:49:27;;;;;;;5.87;3.40;;;2.80;99.90;;;;;;5083350;28;20455;-63
2023/01/12 00:51:52;;;;;;;4.63;3.60;;;2.80;99.90;;;;;;5081118;28;20216;-63
2023/01/12 00:54:18;;;;;;;3.63;3.13;;;2.80;99.90;;;;;;5059980;28;20235;-63
2023/01/12 00:56:44;;;;;;;12.43;4.10;;;2.80;99.90;;;;;;5076685;28;20676;-62
2023/01/12 00:59:09;;;;;;;4.13;3.60;;;2.80;99.90;;;;;;5087360;28;20232;-62
2023/01/12 01:01:35;;;;;;;5.03;2.93;;;2.80;99.90;;;;;;5086556;28;20182;-63
2023/01/12 01:04:01;;;;;;;6.73;3.30;;;2.80;99.90;;;;;;5067549;28;20166;-63
2023/01/12 01:06:27;;;;;;;10.70;4.30;;;2.80;99.90;;;;;;5083880;28;20218;-62
2023/01/12 01:08:52;;;;;;;6.47;4.40;;;2.70;99.90;;;;;;5074582;28;20464;-62
2023/01/12 01:11:18;;;;;;;14.30;6.50;;;2.70;99.90;;;;;;5082074;28;20205;-62
2023/01/12 01:13:44;;;;;;;13.50;7.80;;;2.70;99.90;;;;;;5078186;28;20185;-62
2023/01/12 01:16:12;;;;;;;15.40;7.70;;;2.70;99.90;;;;;;5082460;28;20266;-63
2023/01/12 01:18:38;;;;;;;16.27;8.10;;;2.60;99.90;;;;;;5086756;28;21161;-63
2023/01/12 01:21:05;;;;;;;7.43;4.17;;;2.70;99.90;;;;;;5078266;28;20423;-63
2023/01/12 01:23:33;;;;;;;6.53;3.40;;;2.60;99.90;;;;;;5085370;28;20468;-63
2023/01/12 01:26:07;;;;;;;8.63;4.00;;;2.60;99.90;;;;;;5080370;28;21191;-63
2023/01/12 01:28:34;;;;;;;5.17;3.43;;;2.60;99.90;;;;;;5077820;28;20450;-63
2023/01/12 01:31:14;;;;;;;6.60;3.37;;;2.60;99.90;;;;;;5081431;28;20415;-63
2023/01/12 01:33:40;;;;;;;9.43;3.37;;;2.70;99.90;;;;;;5076129;28;20967;-58
2023/01/12 01:36:06;;;;;;;5.53;3.50;;;2.70;99.90;;;;;;5079133;28;20963;-62
2023/01/12 01:38:32;;;;;;;9.47;3.20;;;2.70;99.90;;;;;;5055265;28;20460;-62
2023/01/12 01:40:58;;;;;;;6.60;2.40;;;2.70;99.90;;;;;;5071628;28;20574;-62
2023/01/12 01:43:25;;;;;;;5.17;2.53;;;2.80;99.90;;;;;;5051360;28;20174;-62
2023/01/12 01:46:08;;;;;;;12.63;3.77;;;2.80;99.90;;;;;;5083606;28;20431;-62
2023/01/12 01:48:37;;;;;;;5.30;2.77;;;2.80;99.90;;;;;;5076076;28;20508;-62
2023/01/12 01:51:08;;;;;;;5.33;2.33;;;2.90;99.90;;;;;;5082592;28;20427;-62
2023/01/12 01:53:36;;;;;;;6.47;2.00;;;3.00;99.90;;;;;;5083489;28;20561;-63
2023/01/12 01:56:07;;;;;;;11.73;2.17;;;3.00;99.90;;;;;;5088747;28;20426;-62
2023/01/12 01:59:03;;;;;;;23.53;3.10;;;3.10;99.90;;;;;;5085917;28;20513;-62
2023/01/12 02:01:28;;;;;;;8.63;2.37;;;3.20;99.90;;;;;;5066035;28;20505;-63
2023/01/12 02:03:55;;;;;;;8.43;2.70;;;3.30;99.90;;;;;;5082101;28;20938;-62
2023/01/12 02:06:24;;;;;;;7.60;2.00;;;3.40;99.90;;;;;;5086828;28;20658;-61
2023/01/12 02:09:02;;;;;;;10.93;2.97;;;3.50;99.90;;;;;;5082020;28;20443;-62
2023/01/12 02:17:11;;;;;;;14.17;2.47;;;3.80;99.90;;;;;;5081203;28;20427;-62
2023/01/12 02:20:08;;;;;;;8.17;2.23;;;3.90;99.90;;;;;;5076833;28;20560;-62
2023/01/12 02:22:36;;;;;;;8.00;2.30;;;4.00;99.90;;;;;;5077233;28;20431;-62
2023/01/12 02:25:11;;;;;;;12.63;2.37;;;4.10;99.90;;;;;;5079881;28;20559;-63
2023/01/12 02:27:49;;;;;;;4.03;2.00;;;4.10;99.90;;;;;;5089831;28;21017;-62
2023/01/12 02:30:35;;;;;;;10.57;2.57;;;4.20;99.90;;;;;;5083184;28;20525;-62
2023/01/12 02:33:16;;;;;;;13.13;2.67;;;4.20;99.90;;;;;;5084399;28;20424;-62
2023/01/12 02:35:50;;;;;;;9.60;2.00;;;4.30;99.90;;;;;;5082325;28;20484;-62
2023/01/12 02:38:39;;;;;;;6.63;2.03;;;4.30;99.90;;;;;;5080978;28;20468;-62
2023/01/12 02:44:50;;;;;;;8.43;2.80;;;4.40;99.90;;;;;;5079069;28;20498;-62
2023/01/12 02:47:24;;;;;;;7.43;2.03;;;4.40;99.90;;;;;;5071573;28;20932;-62
2023/01/12 02:49:54;;;;;;;16.63;2.03;;;4.40;99.90;;;;;;5086029;28;20452;-62
2023/01/12 02:52:24;;;;;;;9.60;2.37;;;4.40;99.90;;;;;;5080614;28;20428;-62
2023/01/12 02:54:52;;;;;;;6.10;2.03;;;4.40;99.90;;;;;;5080771;28;20428;-62
2023/01/12 02:57:20;;;;;;;10.30;2.63;;;4.50;99.90;;;;;;5083968;28;20425;-63
2023/01/12 02:59:49;;;;;;;8.03;2.40;;;4.50;99.90;;;;;;5074761;28;20988;-62
2023/01/12 03:02:20;;;;;;;6.63;2.10;;;4.50;99.90;;;;;;5078369;28;20419;-62
2023/01/12 03:04:45;;;;;;;10.90;2.30;;;4.50;99.90;;;;;;5078120;28;20931;-62
2023/01/12 03:07:14;;;;;;;8.80;2.07;;;4.50;99.90;;;;;;5085875;28;20435;-62
2023/01/12 03:09:55;;;;;;;12.37;2.20;;;4.50;99.90;;;;;;5080894;28;20228;-62
2023/01/12 03:12:28;;;;;;;10.03;1.97;;;4.50;99.90;;;;;;5088755;28;20449;-61
2023/01/12 03:14:55;;;;;;;7.67;1.83;;;4.50;99.90;;;;;;5084733;28;20444;-62
2023/01/12 03:17:30;;;;;;;11.10;2.50;;;4.50;99.90;;;;;;5079764;28;20425;-62
2023/01/12 03:20:02;;;;;;;8.73;2.00;;;4.50;99.90;;;;;;5075017;28;20482;-63
2023/01/12 03:22:29;;;;;;;11.23;2.20;;;4.60;99.90;;;;;;5080303;28;20499;-62
2023/01/12 03:25:01;;;;;;;8.50;2.30;;;4.60;99.90;;;;;;5065871;28;20860;-62
2023/01/12 03:27:39;;;;;;;7.13;1.87;;;4.60;99.90;;;;;;5076075;28;20412;-62
2023/01/12 03:30:13;;;;;;;6.20;1.97;;;4.60;99.90;;;;;;5082237;28;20535;-62
2023/01/12 03:32:40;;;;;;;8.17;1.80;;;4.60;99.90;;;;;;5076218;28;20439;-62
2023/01/12 03:35:07;;;;;;;5.17;2.23;;;4.60;99.90;;;;;;5064403;28;20436;-62
2023/01/12 03:37:36;;;;;;;7.00;1.97;;;4.60;99.90;;;;;;5085602;28;22176;-62
2023/01/12 03:40:16;;;;;;;14.47;2.50;;;4.60;99.90;;;;;;5061289;28;20440;-62
2023/01/12 03:42:49;;;;;;;12.00;2.40;;;4.50;99.90;;;;;;5067964;28;20430;-62
2023/01/12 03:45:26;;;;;;;9.27;2.13;;;4.50;99.90;;;;;;5055497;28;20518;-62
2023/01/12 03:48:19;;;;;;;6.93;1.90;;;4.50;99.90;;;;;;5072910;28;20438;-63
2023/01/12 03:51:24;;;;;;;6.60;2.10;;;4.50;99.90;;;;;;5082246;28;21000;-62
2023/01/12 03:53:51;;;;;;;3.50;1.40;;;4.50;99.90;;;;;;5081458;28;20533;-63
2023/01/12 03:56:19;;;;;;;14.83;2.10;;;4.40;99.90;;;;;;5084841;28;20431;-62
2023/01/12 03:58:46;;;;;;;14.30;2.33;;;4.40;99.90;;;;;;5082395;28;20604;-62
2023/01/12 04:01:12;;;;;;;10.93;2.63;;;4.40;99.90;;;;;;5083056;28;20431;-62
2023/01/12 04:03:38;;;;;;;6.10;2.30;;;4.50;99.90;;;;;;5072396;28;20425;-63
2023/01/12 04:06:03;;;;;;;10.37;3.03;;;4.50;99.90;;;;;;5084097;28;20433;-63
2023/01/12 04:08:29;;;;;;;6.40;2.13;;;4.50;99.90;;;;;;5085496;28;20577;-62
2023/01/12 04:10:55;;;;;;;8.50;2.70;;;4.50;99.90;;;;;;5082264;28;20169;-63
2023/01/12 04:13:21;;;;;;;12.90;3.00;;;4.50;99.90;;;;;;5089878;28;20796;-63
2023/01/12 04:15:47;;;;;;;18.60;2.93;;;4.50;99.90;;;;;;5086743;28;20439;-62
2023/01/12 04:18:13;;;;;;;10.30;2.00;;;4.50;99.90;;;;;;5060176;28;20240;-62
2023/01/12 04:20:40;;;;;;;5.00;2.00;;;4.50;99.90;;;;;;5080661;28;20463;-63
2023/01/12 04:23:06;;;;;;;8.50;2.10;;;4.50;99.90;;;;;;5062789;28;20227;-62
2023/01/12 04:25:32;;;;;;;6.30;2.20;;;4.50;99.90;;;;;;5067347;28;20435;-62
2023/01/12 04:28:02;;;;;;;8.00;2.17;;;4.50;99.90;;;;;;5080339;28;20438;-61
2023/01/12 04:30:29;;;;;;;10.70;2.10;;;4.50;99.90;;;;;;5076708;28;20441;-61
2023/01/12 04:32:56;;;;;;;16.83;2.60;;;4.50;99.90;;;;;;5086219;28;20427;-63
2023/01/12 04:35:23;;;;;;;6.80;1.83;;;4.50;99.90;;;;;;5082162;28;20428;-62
2023/01/12 04:37:49;;;;;;;11.90;2.40;;;4.60;99.90;;;;;;5078165;28;20814;-62
2023/01/12 04:40:15;;;;;;;10.57;2.30;;;4.60;99.90;;;;;;5076163;28;20506;-62
2023/01/12 04:43:00;;;;;;;8.43;1.70;;;4.60;99.90;;;;;;5058646;28;20447;-62
2023/01/12 04:45:38;;;;;;;7.43;2.37;;;4.60;99.90;;;;;;5081090;28;20508;-63
2023/01/12 04:48:09;;;;;;;10.13;2.00;;;4.60;99.90;;;;;;5078588;28;20431;-61
2023/01/12 04:50:34;;;;;;;8.87;2.77;;;4.70;99.90;;;;;;5083941;28;20459;-62
2023/01/12 04:53:02;;;;;;;6.13;1.70;;;4.70;99.90;;;;;;5071142;28;20451;-62
2023/01/12 04:55:28;;;;;;;5.53;1.80;;;4.70;99.90;;;;;;5055192;28;20201;-63
2023/01/12 04:57:54;;;;;;;7.80;2.67;;;4.70;99.90;;;;;;5083590;28;20901;-64
2023/01/12 05:00:20;;;;;;;9.40;2.40;;;4.70;99.90;;;;;;5073583;28;20285;-59
2023/01/12 05:02:46;;;;;;;12.60;2.37;;;4.70;99.90;;;;;;5066759;28;20434;-62
2023/01/12 05:05:11;;;;;;;8.63;2.00;;;4.80;99.90;;;;;;5060673;28;20581;-61
2023/01/12 05:10:21;;;;;;;9.17;1.97;;;4.80;99.90;;;;;;5077541;28;20192;-62
2023/01/12 05:10:23;;;;;;;7.13;2.27;;;4.80;99.90;;;;;;5074099;28;20170;-62
2023/01/12 05:12:48;;;;;;;7.67;1.70;;;4.80;99.90;;;;;;5076258;28;20795;-61
2023/01/12 05:15:14;;;;;;;7.10;2.50;;;4.80;99.90;;;;;;5074599;28;20641;-62
2023/01/12 05:17:39;;;;;;;6.60;1.73;;;4.80;99.90;;;;;;5075135;28;20293;-63
2023/01/12 05:20:05;;;;;;;11.93;2.40;;;4.80;99.90;;;;;;5075008;28;20236;-61
2023/01/12 05:22:31;;;;;;;6.60;2.30;;;4.90;99.90;;;;;;5062367;28;20683;-62
2023/01/12 05:24:57;;;;;;;4.57;1.70;;;4.90;99.90;;;;;;5072247;28;20483;-61
2023/01/12 05:27:22;;;;;;;4.87;1.80;;;4.90;99.90;;;;;;5075344;28;20184;-62
2023/01/12 05:29:48;;;;;;;10.40;2.47;;;4.90;99.90;;;;;;5074904;28;20237;-62
2023/01/12 05:32:14;;;;;;;8.17;2.40;;;4.90;99.90;;;;;;5054918;28;20178;-62
2023/01/12 05:34:40;;;;;;;11.63;2.20;;;4.90;99.90;;;;;;5084394;28;21596;-61
2023/01/12 05:37:06;;;;;;;3.80;1.90;;;4.90;99.90;;;;;;5079976;28;20170;-62
2023/01/12 05:39:31;;;;;;;12.20;2.63;;;4.90;99.90;;;;;;5081083;28;20478;-60
2023/01/12 05:44:41;;;;;;;13.07;2.53;;;4.90;99.90;;;;;;5078889;28;20204;-62
2023/01/12 05:47:07;;;;;;;24.17;1.90;;;4.90;99.90;;;;;;5083429;28;20943;-62
2023/01/12 05:49:32;;;;;;;6.73;2.17;;;4.90;99.90;;;;;;5069038;28;20300;-63
2023/01/12 05:51:58;;;;;;;14.23;2.90;;;4.90;99.90;;;;;;5083635;28;20174;-61
2023/01/12 05:54:23;;;;;;;8.30;2.23;;;4.90;99.90;;;;;;5080113;28;20201;-62
2023/01/12 05:56:50;;;;;;;3.70;1.80;;;4.90;99.90;;;;;;5082810;28;20721;-62
2023/01/12 05:59:15;;;;;;;6.40;1.90;;;4.90;99.90;;;;;;5074317;28;20198;-62
2023/01/12 06:01:41;;;;;;;9.57;2.33;;;4.90;99.90;;;;;;5077768;28;20473;-63
2023/01/12 06:04:06;;;;;;;7.37;2.10;;;4.90;99.90;;;;;;5085893;28;20537;-62
2023/01/12 06:06:32;;;;;;;6.50;2.10;;;4.90;99.90;;;;;;5084886;28;20174;-61
2023/01/12 06:08:59;;;;;;;11.93;2.30;;;4.90;99.90;;;;;;5078602;28;20738;-62
2023/01/12 06:14:09;;;;;;;5.17;1.90;;;4.90;99.90;;;;;;5080584;28;20947;-61
2023/01/12 06:16:39;;;;;;;10.13;2.60;;;4.90;99.90;;;;;;5063607;28;20436;-62
2023/01/12 06:19:05;;;;;;;5.60;2.47;;;4.90;99.90;;;;;;5077648;28;20870;-62
2023/01/12 06:21:31;;;;;;;22.23;2.70;;;4.90;99.90;;;;;;5079899;28;20424;-62
2023/01/12 06:23:57;;;;;;;7.70;2.60;;;4.90;99.90;;;;;;5076635;28;20528;-61
2023/01/12 06:26:23;;;;;;;6.13;2.23;;;4.90;99.90;;;;;;5084450;28;20519;-61
2023/01/12 06:28:48;;;;;;;5.87;2.30;;;4.90;99.90;;;;;;5081547;28;20209;-62
2023/01/12 06:31:14;;;;;;;14.47;2.37;;;4.90;99.90;;;;;;5075038;28;20197;-61
2023/01/12 06:33:40;;;;;;;5.53;2.33;;;4.90;99.90;;;;;;5078005;28;20217;-62
2023/01/12 06:36:07;;;;;;;9.73;2.20;;;4.90;99.90;;;;;;5077081;28;20443;-61
2023/01/12 06:38:33;;;;;;;10.27;2.00;;;4.90;99.90;;;;;;5077799;28;20211;-61
2023/01/12 06:41:04;;;;;;;6.00;2.27;;;4.80;99.90;;;;;;5076909;28;20436;-62
2023/01/12 06:43:30;;;;;;;4.93;2.03;;;4.80;99.90;;;;;;5057579;28;20467;-61
2023/01/12 06:45:55;;;;;;;4.53;2.10;;;4.80;99.90;;;;;;5077464;28;20832;-62
2023/01/12 06:48:24;;;;;;;11.73;2.57;;;4.80;99.90;;;;;;5084182;28;20199;-62
2023/01/12 06:51:03;;;;;;;3.67;1.80;;;4.80;99.90;;;;;;5085879;28;20188;-62
2023/01/12 06:53:29;;;;;;;7.87;2.27;;;4.80;99.90;;;;;;5080748;28;20804;-62
2023/01/12 06:55:55;;;;;;;25.73;2.67;;;4.80;99.90;;;;;;5079816;28;20436;-62
2023/01/12 06:58:20;;;;;;;7.60;2.30;;;4.80;99.90;;;;;;5086118;28;20201;-62
2023/01/12 07:00:46;;;;;;;8.07;2.40;;;4.80;99.90;;;;;;5076498;28;20182;-62
2023/01/12 07:03:18;;;;;;;8.50;2.30;;;4.80;99.90;;;;;;5092680;28;20725;-62
2023/01/12 07:05:44;;;;;;;14.73;2.73;;;4.80;99.90;;;;;;5078231;28;20178;-62
2023/01/12 07:08:14;;;;;;;9.67;2.20;;;4.80;99.90;;;;;;5086734;28;20983;-61
2023/01/12 07:10:40;;;;;;;7.83;2.07;;;4.80;99.90;;;;;;5082194;28;20431;-62
2023/01/12 07:13:06;;;;;;;7.23;1.70;;;4.80;99.90;;;;;;5088655;28;20432;-61
2023/01/12 07:15:31;;;;;;;10.00;1.77;;;4.80;99.90;;;;;;5061095;28;20528;-61
2023/01/12 07:17:57;;;;;;;7.00;2.03;;;4.80;99.90;;;;;;5059298;28;20707;-62
2023/01/12 07:20:24;;;;;;;9.17;1.93;;;4.80;99.90;;;;;;5079108;28;20206;-62
2023/01/12 07:22:50;;;;;;;5.23;1.77;;;4.80;99.90;;;;;;5086024;28;20427;-61
2023/01/12 07:25:16;;;;;;;9.80;2.10;;;4.90;99.90;;;;;;5086314;28;20431;-61
2023/01/12 07:27:57;;;;;;;5.60;1.77;;;4.90;99.90;;;;;;5080567;28;20258;-62
2023/01/12 07:30:24;;;;;;;5.70;1.93;;;4.90;99.90;;;;;;5076912;28;20598;-62
2023/01/12 07:32:50;;;;;;;5.60;2.10;;;4.90;99.90;;;;;;5089269;28;20432;-61
2023/01/12 07:35:16;;;;;;;4.90;2.03;;;4.90;99.90;;;;;;5087656;28;20431;-61
2023/01/12 07:37:50;;;;;;;8.53;2.03;;;4.90;99.90;;;;;;5089600;28;20759;-62
2023/01/12 07:40:16;;;;;;;15.97;2.13;;;5.00;99.90;;;;;;5088783;28;20444;-61
2023/01/12 07:42:42;;;;;;;7.33;2.00;;;5.00;99.90;;;;;;5080790;28;21082;-62
2023/01/12 07:45:07;;;;;;;7.73;2.07;;;5.00;99.90;;;;;;5072994;28;20428;-63
2023/01/12 07:47:33;;;;;;;12.67;2.23;;;5.00;99.90;;;;;;5077999;28;20185;-62
2023/01/12 07:49:59;;;;;;;8.23;2.13;;;5.00;99.90;;;;;;5083131;28;20450;-62
2023/01/12 07:52:25;;;;;;;11.83;1.87;;;5.10;99.90;;;;;;5073845;28;20861;-62
2023/01/12 07:54:50;;;;;;;5.67;2.67;;;5.10;99.90;;;;;;5082441;28;20264;-62
2023/01/12 07:57:17;;;;;;;6.03;1.90;;;5.10;99.90;;;;;;5087923;28;20174;-62
2023/01/12 07:59:42;;;;;;;9.33;2.57;;;5.10;99.90;;;;;;5080128;28;20206;-63
2023/01/12 08:02:15;;;;;;;6.03;1.93;;;5.10;99.90;;;;;;5063187;28;20497;-62
2023/01/12 08:04:44;;;;;;;3.87;1.83;;;5.10;99.90;;;;;;5082906;28;20179;-62
2023/01/12 08:07:10;;;;;;;10.53;1.70;;;5.10;99.90;;;;;;5088249;28;20400;-62
2023/01/12 08:09:35;;;;;;;7.20;1.93;;;5.10;99.90;;;;;;5086595;28;20450;-62
2023/01/12 08:12:01;;;;;;;7.77;2.43;;;5.20;99.90;;;;;;5070091;28;20427;-62
2023/01/12 08:14:32;;;;;;;10.43;2.20;;;5.20;99.90;;;;;;5077667;28;20617;-62
2023/01/12 08:17:00;;;;;;;5.10;1.77;;;5.20;99.90;;;;;;5072371;28;20170;-62
2023/01/12 08:19:35;;;;;;;4.33;2.00;;;5.20;99.90;;;;;;5076994;28;21010;-62
2023/01/12 08:22:03;;;;;;;5.50;2.10;;;5.30;99.90;;;;;;5072399;28;20424;-62
2023/01/12 08:24:35;;;;;;;5.90;1.80;;;5.30;99.90;;;;;;5076826;28;20841;-62
2023/01/12 08:27:03;;;;;;;9.10;1.77;;;5.30;99.90;;;;;;5080190;28;20416;-62
2023/01/12 08:29:38;;;;;;;7.00;2.03;;;5.30;99.90;;;;;;5088329;28;20858;-63
2023/01/12 08:32:05;;;;;;;5.27;1.90;;;5.40;99.90;;;;;;5086693;28;20436;-63
2023/01/12 08:34:32;;;;;;;5.10;2.33;;;5.40;99.90;;;;;;5059407;28;20436;-62
2023/01/12 08:37:00;;;;;;;6.30;2.10;;;5.40;99.90;;;;;;5077617;28;20412;-62
2023/01/12 08:39:28;;;;;;;4.90;1.60;;;5.40;99.90;;;;;;5085019;28;20539;-62
2023/01/12 08:41:54;;;;;;;5.37;2.33;;;5.40;99.90;;;;;;5079661;28;20507;-62
2023/01/12 08:44:20;;;;;;;4.30;1.73;;;5.40;99.90;;;;;;5069070;28;20515;-62
2023/01/12 08:46:48;;;;;;;7.87;1.73;;;5.40;99.90;;;;;;5086464;28;20992;-62
2023/01/12 08:49:16;;;;;;;5.07;1.53;;;5.40;99.90;;;;;;5082716;28;20455;-63
2023/01/12 08:51:42;;;;;;;3.43;1.73;;;5.40;99.90;;;;;;5078126;28;20418;-62
2023/01/12 08:54:09;;;;;;;4.20;1.90;;;5.40;99.90;;;;;;5077880;28;20440;-62
2023/01/12 08:56:35;;;;;;;3.13;1.60;;;5.40;99.90;;;;;;5077475;28;20411;-62
2023/01/12 08:59:02;;;;;;;11.10;1.83;;;5.40;99.90;;;;;;5067099;28;20832;-62
2023/01/12 09:01:28;;;;;;;3.70;2.07;;;5.40;99.90;;;;;;5074069;28;20428;-62
2023/01/12 09:03:57;;;;;;;5.20;1.50;;;5.40;99.90;;;;;;5081242;28;20430;-62
2023/01/12 09:06:25;;;;;;;7.13;2.10;;;5.40;99.90;;;;;;5084967;28;20395;-61
2023/01/12 09:08:58;;;;;;;6.83;1.87;;;5.50;99.90;;;;;;5082542;28;21089;-62
2023/01/12 09:11:26;;;;;;;2.23;1.50;;;5.50;99.90;;;;;;5088859;28;20450;-62
2023/01/12 09:13:51;;;;;;;7.00;2.03;;;5.50;99.90;;;;;;5091304;28;20439;-62
2023/01/12 09:16:18;;;;;;;7.30;2.10;;;5.50;99.90;;;;;;5090259;28;20829;-62
2023/01/12 09:18:44;;;;;;;12.47;2.93;;;5.50;99.90;;;;;;5071262;28;20223;-62
2023/01/12 09:21:11;;;;;;;5.10;1.90;;;5.50;99.90;;;;;;5085179;28;20404;-62
2023/01/12 09:23:38;;;;;;;5.80;1.60;;;5.60;99.90;;;;;;5089719;28;20455;-62
2023/01/12 09:26:11;;;;;;;4.83;2.30;;;5.60;99.90;;;;;;5089673;28;20910;-62
2023/01/12 09:28:38;;;;;;;4.00;1.80;;;5.60;99.90;;;;;;5081432;28;20546;-62
2023/01/12 09:31:09;;;;;;;4.17;1.80;;;5.60;99.90;;;;;;5068820;28;21070;-61
2023/01/12 09:33:36;;;;;;;5.70;1.93;;;5.60;99.90;;;;;;5082003;28;20451;-62
2023/01/12 09:36:05;;;;;;;7.03;2.13;;;5.60;99.90;;;;;;5084172;28;20447;-62
2023/01/12 09:38:31;;;;;;;8.07;2.37;;;5.60;99.90;;;;;;5082022;28;20477;-62
2023/01/12 09:41:00;;;;;;;10.73;2.00;;;5.60;99.90;;;;;;5091996;28;20428;-62
2023/01/12 09:49:42;;;;;;;6.03;1.70;;;5.70;99.90;;;;;;5016862;28;20455;-62
2023/01/12 09:52:08;;;;;;;4.23;2.10;;;5.80;99.90;;;;;;5069679;28;20980;-62
2023/01/12 09:54:34;;;;;;;9.33;1.90;;;5.80;99.90;;;;;;5059023;28;20428;-62
2023/01/12 09:57:00;;;;;;;8.83;2.03;;;5.80;99.90;;;;;;5082039;28;20185;-63
2023/01/12 09:59:43;;;;;;;2.93;1.47;;;5.80;99.90;;;;;;5086578;28;20463;-62
2023/01/12 10:02:12;;;;;;;4.93;2.00;;;5.90;99.90;;;;;;5088871;28;20170;-62
2023/01/12 10:04:38;;;;;;;6.10;1.83;;;5.90;99.90;;;;;;5083636;28;20400;-62
2023/01/12 10:07:07;;;;;;;2.93;1.70;;;5.90;99.90;;;;;;5085529;28;20435;-62
2023/01/12 10:09:33;;;;;;;4.03;1.50;;;5.90;99.90;;;;;;5083423;28;20456;-62
2023/01/12 10:12:24;;;;;;;4.73;1.60;;;5.90;99.90;;;;;;5089486;28;20429;-62
2023/01/12 10:15:44;;;;;;;4.37;2.03;;;5.90;99.90;;;;;;5079600;28;20442;-63
2023/01/12 10:18:38;;;;;;;2.83;1.90;;;5.80;99.90;;;;;;5015718;28;20462;-62
2023/01/12 10:21:09;;;;;;;5.83;1.60;;;5.90;99.90;;;;;;5086801;28;20509;-62
2023/01/12 10:23:35;;;;;;;8.37;1.77;;;5.90;99.90;;;;;;5080773;28;20432;-62
2023/01/12 10:26:23;;;;;;;7.00;1.93;;;5.90;99.90;;;;;;5081223;28;20431;-62
2023/01/12 10:28:52;;;;;;;3.80;1.60;;;5.90;99.90;;;;;;5082896;28;20276;-62
2023/01/12 10:31:25;;;;;;;8.00;2.77;;;5.90;99.90;;;;;;5090918;28;21073;-62
2023/01/12 10:34:08;;;;;;;3.20;1.60;;;5.90;99.90;;;;;;5083109;28;20531;-62
2023/01/12 10:36:43;;;;;;;5.20;2.43;;;5.90;99.90;;;;;;5076248;28;20797;-62
2023/01/12 10:39:37;;;;;;;5.07;1.90;;;5.90;99.90;;;;;;5080397;28;20479;-61
2023/01/12 10:42:09;;;;;;;5.43;1.80;;;6.00;99.90;;;;;;5084150;28;20753;-62
2023/01/12 10:44:34;;;;;;;3.83;1.63;;;6.00;99.90;;;;;;5090358;28;20436;-62
2023/01/12 10:47:14;;;;;;;4.70;1.60;;;6.00;99.90;;;;;;5083193;28;20966;-62
2023/01/12 10:49:40;;;;;;;4.90;1.97;;;6.00;99.90;;;;;;5082329;28;20205;-63
2023/01/12 10:52:23;;;;;;;3.23;1.77;;;6.10;99.90;;;;;;5079987;28;20431;-61
2023/01/12 10:54:49;;;;;;;4.73;1.80;;;6.10;99.90;;;;;;5076830;28;20190;-62
2023/01/12 10:57:19;;;;;;;6.70;1.40;;;6.10;99.90;;;;;;5060960;28;20535;-62
2023/01/12 10:59:58;;;;;;;4.00;1.70;;;6.10;99.90;;;;;;5084786;28;20224;-63
2023/01/12 11:02:27;;;;;;;3.00;1.40;;;6.10;99.90;;;;;;5087862;28;20424;-62
2023/01/12 11:04:54;;;;;;;7.40;1.80;;;6.20;99.90;;;;;;5080460;28;20961;-62
2023/01/12 11:07:29;;;;;;;2.47;1.37;;;6.20;99.90;;;;;;5081955;28;20440;-62
2023/01/12 11:10:16;;;;;;;2.87;1.43;;;6.20;99.90;;;;;;5067499;28;20497;-62
2023/01/12 11:12:41;;;;;;;6.83;1.50;;;6.20;99.90;;;;;;5073975;28;20799;-62
2023/01/12 11:15:13;;;;;;;2.70;1.60;;;6.20;99.90;;;;;;5065982;28;20546;-56
2023/01/12 11:18:10;;;;;;;2.13;1.37;;;6.20;99.90;;;;;;5081046;28;20185;-52
2023/01/12 11:20:44;;;;;;;6.10;1.80;;;6.20;99.90;;;;;;5075036;28;20468;-62
2023/01/12 11:23:19;;;;;;;5.60;1.27;;;6.30;99.90;;;;;;5076949;28;20438;-63
2023/01/12 11:25:48;;;;;;;6.87;1.90;;;6.30;99.90;;;;;;5079865;28;20462;-63
2023/01/12 11:28:36;;;;;;;8.93;1.80;;;6.30;99.90;;;;;;5075470;28;20435;-62
2023/01/12 11:31:18;;;;;;;9.63;2.73;;;6.40;99.90;;;;;;5082858;28;20419;-63
2023/01/12 11:33:45;;;;;;;11.13;2.20;;;6.40;99.90;;;;;;5086670;28;20412;-63
2023/01/12 11:36:19;;;;;;;8.33;1.87;;;6.40;99.90;;;;;;5085539;28;20426;-62
2023/01/12 11:38:49;;;;;;;6.60;1.83;;;6.40;99.90;;;;;;5082217;28;20906;-63
2023/01/12 11:44:47;;;;;;;3.00;1.60;;;6.40;99.90;;;;;;5079124;28;20416;-63
2023/01/12 11:47:15;;;;;;;3.77;1.83;;;6.40;99.90;;;;;;5086755;28;20423;-62
2023/01/12 11:49:43;;;;;;;6.53;1.80;;;6.50;99.90;;;;;;5064133;28;21154;-64
2023/01/12 11:52:12;;;;;;;4.50;1.77;;;6.50;99.90;;;;;;5087448;28;20963;-64
2023/01/12 11:54:38;;;;;;;6.67;2.00;;;6.50;99.90;;;;;;5083642;28;20458;-64
2023/01/12 11:57:55;;;;;;;7.30;2.20;;;6.50;99.90;;;;;;5064492;28;20419;-64
2023/01/12 12:00:35;;;;;;;5.17;2.10;;;6.50;99.90;;;;;;5035702;28;20550;-62
2023/01/12 12:03:15;;;;;;;4.20;1.70;;;6.60;99.90;;;;;;5074448;28;20404;-63
2023/01/12 12:06:07;;;;;;;5.60;1.70;;;6.60;99.90;;;;;;5079768;28;20440;-63
2023/01/12 12:08:47;;;;;;;7.70;1.90;;;6.60;99.90;;;;;;5074818;28;20482;-61
2023/01/12 12:11:34;;;;;;;2.30;1.30;;;6.60;99.90;;;;;;5077221;28;20445;-62
2023/01/12 12:14:27;;;;;;;1.73;1.50;;;6.60;99.90;;;;;;5082211;28;20443;-62
2023/01/12 12:17:15;;;;;;;6.60;2.00;;;6.70;99.90;;;;;;5040080;28;20464;-62
2023/01/12 12:19:47;;;;;;;6.60;1.90;;;6.70;99.90;;;;;;5062788;28;20466;-62
2023/01/12 12:22:24;;;;;;;2.83;1.73;;;6.70;99.90;;;;;;5081119;28;20420;-61
2023/01/12 12:25:04;;;;;;;6.43;2.00;;;6.70;99.90;;;;;;5073448;28;20427;-62
2023/01/12 12:27:58;;;;;;;7.03;1.60;;;6.70;99.90;;;;;;5074670;28;20432;-62
2023/01/12 12:30:58;;;;;;;4.00;2.20;;;6.80;99.90;;;;;;5072186;28;20471;-61
2023/01/12 12:33:32;;;;;;;7.40;1.37;;;6.80;99.90;;;;;;5074683;28;20606;-61
2023/01/12 12:36:38;;;;;;;4.00;1.30;;;6.80;99.90;;;;;;5076482;28;20429;-61
2023/01/12 12:39:10;;;;;;;4.87;1.70;;;6.90;99.90;;;;;;5060658;28;20472;-62
2023/01/12 12:45:16;;;;;;;2.37;1.53;;;7.00;99.90;;;;;;5081234;28;20992;-61
2023/01/12 12:47:57;;;;;;;1.77;1.60;;;7.00;99.90;;;;;;5064901;28;20443;-61
2023/01/12 12:50:26;;;;;;;3.63;1.67;;;7.10;99.90;;;;;;5070697;28;21014;-61
2023/01/12 12:53:15;;;;;;;1.93;1.50;;;7.10;99.90;;;;;;5084420;28;20560;-61
2023/01/12 12:55:41;;;;;;;1.57;1.27;;;7.10;99.90;;;;;;5084521;28;20428;-61
2023/01/12 12:58:22;;;;;;;4.03;1.43;;;7.20;99.90;;;;;;5083885;28;20574;-62
2023/01/12 13:00:50;;;;;;;2.83;1.50;;;7.20;99.90;;;;;;5084534;28;20545;-61
2023/01/12 13:03:38;;;;;;;8.33;1.30;;;7.30;99.90;;;;;;5078842;28;20923;-61
2023/01/12 13:06:32;;;;;;;3.47;1.43;;;7.30;99.90;;;;;;5073624;28;20427;-61
2023/01/12 13:09:18;;;;;;;2.03;1.30;;;7.30;99.90;;;;;;5073868;28;20614;-61
2023/01/12 13:11:59;;;;;;;1.70;1.30;;;7.30;99.90;;;;;;5042452;28;20426;-62
2023/01/12 13:14:32;;;;;;;2.33;1.10;;;7.30;99.90;;;;;;5089335;28;20435;-60
2023/01/12 13:17:02;;;;;;;2.33;1.30;;;7.30;99.90;;;;;;5080854;28;20428;-62
2023/01/12 13:19:39;;;;;;;3.30;1.63;;;7.40;99.90;;;;;;5077654;28;20464;-61
2023/01/12 13:22:28;;;;;;;2.90;1.20;;;7.30;99.90;;;;;;5078831;28;20432;-61
2023/01/12 13:24:56;;;;;;;4.00;1.90;;;7.30;99.90;;;;;;5067312;28;20421;-61
2023/01/12 13:27:59;;;;;;;2.60;1.20;;;7.40;99.90;;;;;;5072053;28;20424;-62
2023/01/12 13:30:27;;;;;;;2.50;1.13;;;7.40;99.90;;;;;;5085771;28;20447;-62
2023/01/12 13:33:14;;;;;;;1.57;1.17;;;7.40;99.90;;;;;;5082847;28;20455;-62
2023/01/12 13:35:43;;;;;;;1.93;1.10;;;7.40;99.90;;;;;;5055252;28;20447;-61
2023/01/12 13:38:37;;;;;;;5.70;1.37;;;7.40;99.90;;;;;;5082099;28;20526;-63
2023/01/12 13:44:24;;;;;;;2.17;1.20;;;7.40;99.90;;;;;;5082101;28;20477;-62
2023/01/12 13:47:01;;;;;;;2.90;1.73;;;7.30;99.90;;;;;;5080463;28;20825;-62
2023/01/12 13:49:33;;;;;;;2.13;1.13;;;7.40;99.90;;;;;;5080164;28;20455;-61
2023/01/12 13:52:00;;;;;;;5.63;1.37;;;7.40;99.90;;;;;;5088049;28;20423;-62
2023/01/12 13:54:26;;;;;;;2.97;1.30;;;7.40;99.90;;;;;;5063118;28;20515;-62
2023/01/12 13:56:59;;;;;;;2.00;1.20;;;7.40;99.90;;;;;;5078026;28;20425;-56
2023/01/12 13:59:26;;;;;;;2.00;1.53;;;7.40;99.90;;;;;;5086606;28;20471;-58